Time;durP1;ratioP1;P1;durP2;ratioP2;P2;SDS_P1;SDS_P2;PMS_P1;PMS_P2;Temp;Humidity;BMP_temperature;BMP_pressure;BME280_temperature;BME280_humidity;BME280_pressure;Samples;Min_cycle;Max_cycle;Signal;HPM_P1;HPM_P2
2021/03/06 00:00:49;;;;;;;8.63;2.97;;;1.90;99.90;;;;;;5072627;28;20020;-67
2021/03/06 00:03:14;;;;;;;7.13;3.30;;;1.90;99.90;;;;;;5071593;28;20094;-68
2021/03/06 00:05:40;;;;;;;12.73;3.67;;;1.90;99.90;;;;;;5072220;28;20035;-68
2021/03/06 00:08:06;;;;;;;7.93;2.92;;;1.90;99.90;;;;;;5071858;28;20036;-67
2021/03/06 00:10:31;;;;;;;10.15;3.13;;;1.90;99.90;;;;;;5072273;28;20032;-67
2021/03/06 00:12:57;;;;;;;7.43;3.30;;;1.90;99.90;;;;;;5072664;28;20420;-67
2021/03/06 00:15:26;;;;;;;6.70;2.67;;;1.80;99.90;;;;;;5071433;28;20491;-69
2021/03/06 00:17:52;;;;;;;4.57;3.00;;;1.80;99.90;;;;;;5072758;28;20029;-67
2021/03/06 00:20:18;;;;;;;18.15;5.03;;;1.80;99.90;;;;;;5071991;28;20111;-68
2021/03/06 00:22:44;;;;;;;7.82;2.80;;;1.80;99.90;;;;;;5072267;28;20064;-68
2021/03/06 00:25:12;;;;;;;10.68;2.88;;;1.90;99.90;;;;;;5075413;28;20492;-67
2021/03/06 00:27:38;;;;;;;6.97;2.45;;;1.90;99.90;;;;;;5071521;28;20033;-68
2021/03/06 00:30:13;;;;;;;5.95;2.30;;;1.90;99.90;;;;;;5072374;28;20389;-68
2021/03/06 00:32:39;;;;;;;11.13;2.78;;;1.80;99.90;;;;;;5069627;28;20039;-68
2021/03/06 00:35:06;;;;;;;8.95;2.35;;;1.70;99.90;;;;;;5071194;28;20028;-68
2021/03/06 00:37:31;;;;;;;5.63;2.25;;;1.70;99.90;;;;;;5070677;28;20389;-69
2021/03/06 00:39:57;;;;;;;5.55;2.38;;;1.60;99.90;;;;;;5071788;28;20027;-67
2021/03/06 00:42:23;;;;;;;7.20;2.60;;;1.60;99.90;;;;;;5071715;28;20028;-67
2021/03/06 00:44:48;;;;;;;9.15;2.33;;;1.60;99.90;;;;;;5071111;28;20020;-69
2021/03/06 00:47:14;;;;;;;5.07;2.05;;;1.60;99.90;;;;;;5068135;28;20032;-69
2021/03/06 00:49:39;;;;;;;5.00;2.20;;;1.60;99.90;;;;;;5070572;28;20028;-69
2021/03/06 00:52:05;;;;;;;15.18;2.30;;;1.60;99.90;;;;;;5069306;28;20120;-69
2021/03/06 00:54:31;;;;;;;8.23;2.05;;;1.60;99.90;;;;;;5068877;28;20444;-68
2021/03/06 00:56:56;;;;;;;6.07;1.90;;;1.60;99.90;;;;;;5071162;28;20085;-69
2021/03/06 00:59:22;;;;;;;4.07;2.30;;;1.60;99.90;;;;;;5072074;28;20025;-68
2021/03/06 01:01:48;;;;;;;6.93;2.25;;;1.60;99.90;;;;;;5071088;28;20067;-67
2021/03/06 01:04:13;;;;;;;6.18;2.10;;;1.60;99.90;;;;;;5072316;28;20523;-68
2021/03/06 01:06:39;;;;;;;5.35;2.10;;;1.60;99.90;;;;;;5068340;28;20039;-68
2021/03/06 01:09:05;;;;;;;10.63;2.90;;;1.60;99.90;;;;;;5071338;28;20028;-67
2021/03/06 01:11:30;;;;;;;10.30;3.50;;;1.60;99.90;;;;;;5070219;28;20491;-68
2021/03/06 01:13:56;;;;;;;8.02;2.22;;;1.50;99.90;;;;;;5071305;28;20032;-67
2021/03/06 01:16:22;;;;;;;8.60;2.38;;;1.50;99.90;;;;;;5071545;28;20033;-68
2021/03/06 01:18:48;;;;;;;10.55;2.53;;;1.50;99.90;;;;;;5072933;28;20051;-68
2021/03/06 01:21:13;;;;;;;7.25;2.20;;;1.50;99.90;;;;;;5070776;28;20370;-67
2021/03/06 01:23:39;;;;;;;13.98;2.88;;;1.50;99.90;;;;;;5073591;28;20033;-68
2021/03/06 01:26:04;;;;;;;6.35;2.45;;;1.50;99.90;;;;;;5073726;28;20531;-67
2021/03/06 01:28:31;;;;;;;6.88;2.03;;;1.50;99.90;;;;;;5075337;28;20400;-68
2021/03/06 01:30:56;;;;;;;6.32;2.42;;;1.50;99.90;;;;;;5074343;28;20035;-67
2021/03/06 01:33:22;;;;;;;3.95;2.38;;;1.40;99.90;;;;;;5073888;28;20485;-67
2021/03/06 01:35:47;;;;;;;8.38;2.13;;;1.40;99.90;;;;;;5073313;28;20025;-69
2021/03/06 01:38:13;;;;;;;7.22;2.28;;;1.30;99.90;;;;;;5074101;28;20086;-67
2021/03/06 01:40:39;;;;;;;4.47;2.58;;;1.30;99.90;;;;;;5073523;28;20040;-68
2021/03/06 01:43:10;;;;;;;2.67;1.95;;;1.20;99.90;;;;;;5074814;28;20029;-67
2021/03/06 01:45:36;;;;;;;7.57;2.40;;;1.30;99.90;;;;;;5075559;28;20029;-67
2021/03/06 01:48:03;;;;;;;6.28;2.47;;;1.30;99.90;;;;;;5075749;28;20017;-68
2021/03/06 01:50:38;;;;;;;10.60;2.47;;;1.40;99.90;;;;;;5073988;28;20020;-67
2021/03/06 01:53:06;;;;;;;13.55;2.20;;;1.30;99.90;;;;;;5073629;28;20047;-67
2021/03/06 01:55:36;;;;;;;6.13;2.53;;;1.30;99.90;;;;;;5073850;28;20060;-68
2021/03/06 01:58:02;;;;;;;6.78;2.92;;;1.30;99.90;;;;;;5069607;28;20029;-68
2021/03/06 02:00:28;;;;;;;5.63;1.95;;;1.20;99.90;;;;;;5053958;28;20029;-68
2021/03/06 02:02:56;;;;;;;6.78;2.47;;;1.20;99.90;;;;;;5054000;28;20031;-68
2021/03/06 02:05:21;;;;;;;5.07;2.60;;;1.10;99.90;;;;;;5065782;28;20017;-69
2021/03/06 02:07:47;;;;;;;12.27;3.78;;;1.10;99.90;;;;;;5067951;28;20032;-68
2021/03/06 02:10:14;;;;;;;6.00;2.13;;;1.00;99.90;;;;;;5074497;28;20063;-68
2021/03/06 02:12:53;;;;;;;8.95;2.17;;;1.00;99.90;;;;;;5075144;28;20029;-69
2021/03/06 02:15:26;;;;;;;;;;;1.00;99.90;;;;;;5075192;28;20036;-68
2021/03/06 02:18:02;;;;;;;4.72;2.05;;;1.00;99.90;;;;;;5071069;28;19959;-67
2021/03/06 02:21:01;;;;;;;6.10;1.95;;;1.00;99.90;;;;;;5073121;28;20036;-68
2021/03/06 02:23:42;;;;;;;5.57;2.60;;;0.90;99.90;;;;;;5072517;28;20041;-67
2021/03/06 02:26:35;;;;;;;5.95;3.28;;;0.90;99.90;;;;;;5072598;28;20524;-68
2021/03/06 02:29:25;;;;;;;3.60;2.00;;;0.90;99.90;;;;;;5068686;28;20139;-67
2021/03/06 02:31:54;;;;;;;3.70;2.00;;;0.80;99.90;;;;;;5053300;28;20032;-67
2021/03/06 02:34:24;;;;;;;6.45;2.10;;;0.80;99.90;;;;;;5067038;28;20032;-68
2021/03/06 02:36:57;;;;;;;7.28;1.88;;;0.80;99.90;;;;;;5060291;28;20027;-68
2021/03/06 02:39:25;;;;;;;9.25;2.25;;;0.80;99.90;;;;;;5074531;28;20031;-68
2021/03/06 02:41:52;;;;;;;4.78;2.13;;;0.80;99.90;;;;;;5073931;28;20111;-68
2021/03/06 02:44:20;;;;;;;2.40;1.58;;;0.70;99.90;;;;;;5074313;28;20028;-68
2021/03/06 02:46:47;;;;;;;9.95;2.58;;;0.70;99.90;;;;;;5072732;28;20037;-68
2021/03/06 02:49:13;;;;;;;3.08;2.03;;;0.70;99.90;;;;;;5073117;28;20020;-68
2021/03/06 02:51:40;;;;;;;4.93;1.80;;;0.70;99.90;;;;;;5072500;28;20511;-67
2021/03/06 02:54:07;;;;;;;5.72;1.73;;;0.70;99.90;;;;;;5072447;28;20059;-68
2021/03/06 02:56:34;;;;;;;5.35;2.25;;;0.70;99.90;;;;;;5074187;28;20515;-69
2021/03/06 02:59:40;;;;;;;7.28;1.80;;;0.70;99.90;;;;;;5073321;28;20474;-68
2021/03/06 03:02:27;;;;;;;9.50;2.28;;;0.70;99.90;;;;;;5050973;28;20032;-67
2021/03/06 03:05:15;;;;;;;5.63;2.40;;;0.80;99.90;;;;;;5074077;28;20024;-68
2021/03/06 03:07:50;;;;;;;4.75;1.75;;;0.80;99.90;;;;;;5073512;28;20067;-68
2021/03/06 03:10:34;;;;;;;6.50;2.08;;;0.80;99.90;;;;;;5073747;28;20052;-67
2021/03/06 03:13:17;;;;;;;5.45;1.90;;;0.80;99.90;;;;;;5073981;28;20028;-69
2021/03/06 03:15:47;;;;;;;8.63;2.25;;;0.70;99.90;;;;;;5073670;28;20028;-69
2021/03/06 03:18:23;;;;;;;9.07;1.95;;;0.70;99.90;;;;;;5073267;28;20021;-68
2021/03/06 03:20:59;;;;;;;7.60;2.63;;;0.70;99.90;;;;;;5073761;28;20028;-68
2021/03/06 03:23:38;;;;;;;4.55;2.15;;;0.70;99.90;;;;;;5072578;28;20101;-69
2021/03/06 03:26:08;;;;;;;6.93;1.80;;;0.70;99.90;;;;;;5071936;28;20029;-69
2021/03/06 03:28:36;;;;;;;7.68;2.10;;;0.70;99.90;;;;;;5073684;28;20027;-68
2021/03/06 03:31:03;;;;;;;5.03;1.85;;;0.70;99.90;;;;;;5072391;28;20066;-68
2021/03/06 03:33:29;;;;;;;5.18;1.90;;;0.70;99.90;;;;;;5072114;28;20086;-69
2021/03/06 03:35:56;;;;;;;4.20;2.00;;;0.80;99.90;;;;;;5071871;28;20038;-68
2021/03/06 03:38:22;;;;;;;4.55;2.50;;;0.70;99.90;;;;;;5071042;28;20572;-69
2021/03/06 03:40:49;;;;;;;7.47;2.05;;;0.70;99.90;;;;;;5071912;28;20111;-68
2021/03/06 03:43:15;;;;;;;7.82;2.20;;;0.70;99.90;;;;;;5071771;28;20036;-68
2021/03/06 03:45:41;;;;;;;8.13;2.65;;;0.60;99.90;;;;;;5070929;28;20028;-68
2021/03/06 03:48:09;;;;;;;6.80;2.05;;;0.60;99.90;;;;;;5071709;28;20029;-69
2021/03/06 03:50:35;;;;;;;5.25;1.92;;;0.60;99.90;;;;;;5072812;28;20025;-69
2021/03/06 03:53:01;;;;;;;4.70;1.95;;;0.50;99.90;;;;;;5071765;28;20020;-68
2021/03/06 03:55:27;;;;;;;3.92;2.00;;;0.50;99.90;;;;;;5072095;28;20020;-68
2021/03/06 03:57:54;;;;;;;12.73;3.38;;;0.50;99.90;;;;;;5072247;28;20477;-68
2021/03/06 04:00:20;;;;;;;5.80;2.67;;;0.50;99.90;;;;;;5070844;28;20381;-69
2021/03/06 04:02:46;;;;;;;11.15;2.83;;;0.50;99.90;;;;;;5071758;28;20024;-68
2021/03/06 04:05:13;;;;;;;8.82;3.25;;;0.40;99.90;;;;;;5072459;28;20035;-68
2021/03/06 04:07:47;;;;;;;5.57;2.38;;;0.40;99.90;;;;;;5072499;28;20040;-68
2021/03/06 04:10:15;;;;;;;11.90;2.45;;;0.40;99.90;;;;;;5073092;28;20028;-68
2021/03/06 04:12:42;;;;;;;7.47;2.63;;;0.40;99.90;;;;;;5072905;28;20029;-68
2021/03/06 04:15:09;;;;;;;4.07;2.40;;;0.30;99.90;;;;;;5073021;28;20082;-68
2021/03/06 04:17:35;;;;;;;6.27;2.43;;;0.40;99.90;;;;;;5072802;28;20034;-69
2021/03/06 04:20:06;;;;;;;9.90;3.33;;;0.40;99.90;;;;;;5071549;28;20068;-66
2021/03/06 04:22:31;;;;;;;6.90;2.53;;;0.40;99.90;;;;;;5072327;28;20090;-67
2021/03/06 04:24:57;;;;;;;2.92;2.20;;;0.30;99.90;;;;;;5073260;28;20028;-68
2021/03/06 04:27:23;;;;;;;2.90;2.20;;;0.30;99.90;;;;;;5071389;28;20047;-67
2021/03/06 04:29:49;;;;;;;7.40;2.72;;;0.30;99.90;;;;;;5072975;28;20020;-67
2021/03/06 04:32:15;;;;;;;6.80;2.72;;;0.30;99.90;;;;;;5070466;28;20052;-67
2021/03/06 04:34:40;;;;;;;2.63;2.30;;;0.20;99.90;;;;;;5072987;28;20531;-68
2021/03/06 04:37:06;;;;;;;7.20;2.40;;;0.30;99.90;;;;;;5070564;28;20027;-68
2021/03/06 04:39:32;;;;;;;7.10;2.88;;;0.30;99.90;;;;;;5072789;28;20134;-69
2021/03/06 04:41:57;;;;;;;5.70;2.78;;;0.30;99.90;;;;;;5071276;28;20035;-68
2021/03/06 04:44:24;;;;;;;4.35;2.53;;;0.30;99.90;;;;;;5071092;28;20020;-68
2021/03/06 04:46:49;;;;;;;12.27;3.58;;;0.30;99.90;;;;;;5071278;28;20016;-68
2021/03/06 04:49:15;;;;;;;8.38;3.30;;;0.30;99.90;;;;;;5070289;28;20024;-69
2021/03/06 04:51:41;;;;;;;8.48;2.40;;;0.30;99.90;;;;;;5072364;28;20047;-69
2021/03/06 04:54:07;;;;;;;6.25;2.30;;;0.30;99.90;;;;;;5072588;28;20346;-68
2021/03/06 04:56:33;;;;;;;5.38;2.38;;;0.30;99.90;;;;;;5071298;28;20074;-69
2021/03/06 04:58:58;;;;;;;7.13;2.50;;;0.20;99.90;;;;;;5083371;28;20103;-68
2021/03/06 05:01:24;;;;;;;12.27;2.30;;;0.20;99.90;;;;;;5072885;28;20516;-69
2021/03/06 05:03:50;;;;;;;6.38;2.47;;;0.20;99.90;;;;;;5074939;28;20037;-68
2021/03/06 05:06:15;;;;;;;5.45;2.67;;;0.10;99.90;;;;;;5075967;28;20023;-68
2021/03/06 05:08:41;;;;;;;15.70;2.97;;;0.10;99.90;;;;;;5072467;28;20071;-68
2021/03/06 05:11:07;;;;;;;7.10;2.72;;;0.00;99.90;;;;;;5074585;28;20082;-68
2021/03/06 05:13:34;;;;;;;7.03;2.92;;;0.00;99.90;;;;;;5074922;28;20528;-68
2021/03/06 05:16:00;;;;;;;7.18;2.78;;;0.00;99.90;;;;;;5075414;28;20024;-68
2021/03/06 05:18:25;;;;;;;18.90;4.85;;;0.00;99.90;;;;;;5073796;28;20028;-67
2021/03/06 05:20:51;;;;;;;8.40;2.70;;;0.10;99.90;;;;;;5074503;28;20128;-67
2021/03/06 05:23:17;;;;;;;6.60;2.85;;;0.10;99.90;;;;;;5074912;28;20423;-67
2021/03/06 05:25:42;;;;;;;16.17;3.78;;;0.10;99.90;;;;;;5075769;28;20020;-69
2021/03/06 05:28:08;;;;;;;9.07;2.95;;;0.10;99.90;;;;;;5075618;28;20024;-68
2021/03/06 05:30:34;;;;;;;4.03;2.20;;;0.10;99.90;;;;;;5073889;28;20077;-67
2021/03/06 05:32:59;;;;;;;8.27;3.17;;;0.00;99.90;;;;;;5074552;28;20052;-69
2021/03/06 05:35:25;;;;;;;11.20;3.22;;;0.00;99.90;;;;;;5075701;28;20043;-69
2021/03/06 05:37:50;;;;;;;5.93;2.50;;;0.00;99.90;;;;;;5074217;28;20126;-69
2021/03/06 05:40:16;;;;;;;6.55;3.40;;;0.00;99.90;;;;;;5073585;28;20374;-69
2021/03/06 05:42:42;;;;;;;5.00;3.15;;;0.00;99.90;;;;;;5075065;28;20036;-67
2021/03/06 05:45:09;;;;;;;7.78;3.58;;;0.00;99.90;;;;;;5074934;28;20350;-67
2021/03/06 05:47:35;;;;;;;4.68;2.33;;;0.00;99.90;;;;;;5075029;28;20037;-68
2021/03/06 05:50:01;;;;;;;6.28;3.22;;;0.00;99.90;;;;;;5064702;28;20024;-68
2021/03/06 05:52:28;;;;;;;15.38;3.17;;;-0.10;99.90;;;;;;5068860;28;20481;-69
2021/03/06 05:54:56;;;;;;;3.80;3.08;;;-0.10;99.90;;;;;;5071765;28;20054;-68
2021/03/06 05:57:22;;;;;;;5.90;3.05;;;-0.10;99.90;;;;;;5074305;28;20094;-68
2021/03/06 05:59:49;;;;;;;8.63;2.72;;;-0.10;99.90;;;;;;5077412;28;20020;-68
2021/03/06 06:02:19;;;;;;;7.25;3.20;;;-0.10;99.90;;;;;;5076653;28;20033;-68
2021/03/06 06:04:46;;;;;;;7.00;3.78;;;-0.10;99.90;;;;;;5072464;28;20024;-68
2021/03/06 06:07:15;;;;;;;8.57;3.53;;;-0.10;99.90;;;;;;5068542;28;20075;-68
2021/03/06 06:09:41;;;;;;;5.60;3.08;;;-0.10;99.90;;;;;;5068845;28;20078;-68
2021/03/06 06:12:07;;;;;;;12.52;3.38;;;0.00;99.90;;;;;;5077800;28;20029;-68
2021/03/06 06:14:33;;;;;;;11.25;4.15;;;0.00;99.90;;;;;;5068797;28;20028;-69
2021/03/06 06:17:03;;;;;;;7.97;3.30;;;0.00;99.90;;;;;;5069106;28;20035;-69
2021/03/06 06:19:32;;;;;;;6.10;3.08;;;0.00;99.90;;;;;;5075216;28;20468;-68
2021/03/06 06:22:00;;;;;;;9.95;3.53;;;0.00;99.90;;;;;;5073667;28;20056;-68
2021/03/06 06:24:25;;;;;;;;;;;0.00;99.90;;;;;;5075111;28;20025;-68
2021/03/06 06:27:00;;;;;;;5.63;3.05;;;0.00;99.90;;;;;;5074682;28;20360;-69
2021/03/06 06:29:46;;;;;;;11.15;3.78;;;0.10;99.90;;;;;;5074398;28;20372;-69
2021/03/06 06:32:20;;;;;;;9.48;3.70;;;0.20;99.90;;;;;;5069625;28;20025;-69
2021/03/06 06:35:03;;;;;;;7.78;3.63;;;0.20;99.90;;;;;;5075541;28;20476;-69
2021/03/06 06:37:29;;;;;;;9.73;3.70;;;0.20;99.90;;;;;;5072442;28;20035;-68
2021/03/06 06:39:56;;;;;;;10.43;3.50;;;0.30;99.90;;;;;;5079158;28;20024;-68
2021/03/06 06:42:31;;;;;;;11.48;4.05;;;0.40;99.90;;;;;;5076793;28;20425;-68
2021/03/06 06:44:58;;;;;;;11.27;3.40;;;0.50;99.90;;;;;;5084169;28;20017;-68
2021/03/06 06:47:24;;;;;;;11.60;3.42;;;0.50;99.90;;;;;;5077680;28;20491;-68
2021/03/06 06:49:53;;;;;;;10.40;3.53;;;0.60;99.90;;;;;;5064505;28;20100;-68
2021/03/06 06:52:23;;;;;;;6.25;3.40;;;0.60;99.90;;;;;;5070912;28;20035;-68
2021/03/06 06:54:58;;;;;;;5.88;3.13;;;0.70;99.90;;;;;;5074653;28;20027;-68
2021/03/06 06:57:28;;;;;;;10.80;4.10;;;0.70;99.90;;;;;;5073923;28;20025;-68
2021/03/06 07:00:03;;;;;;;15.65;5.05;;;0.80;99.90;;;;;;5072409;28;20041;-69
2021/03/06 07:02:29;;;;;;;11.65;4.30;;;0.90;99.90;;;;;;5070413;28;20040;-68
2021/03/06 07:04:56;;;;;;;15.43;3.90;;;0.90;99.90;;;;;;5074498;28;20033;-68
2021/03/06 07:07:24;;;;;;;8.20;3.25;;;0.90;99.90;;;;;;5071229;28;20048;-71
2021/03/06 07:10:02;;;;;;;11.68;3.65;;;1.00;99.90;;;;;;5066973;28;20047;-68
2021/03/06 07:12:38;;;;;;;9.30;3.92;;;0.90;99.90;;;;;;5071423;28;20033;-68
2021/03/06 07:15:25;;;;;;;8.57;3.50;;;1.00;99.90;;;;;;5069940;28;20400;-69
2021/03/06 07:17:53;;;;;;;4.70;3.20;;;1.10;99.90;;;;;;5071235;28;20024;-68
2021/03/06 07:20:22;;;;;;;12.88;3.22;;;1.20;99.90;;;;;;5067304;28;20391;-68
2021/03/06 07:22:48;;;;;;;8.80;3.83;;;1.40;99.90;;;;;;5072977;28;20409;-68
2021/03/06 07:25:14;;;;;;;12.10;3.78;;;1.50;99.90;;;;;;5069832;28;20488;-68
2021/03/06 07:27:41;;;;;;;7.28;4.07;;;1.70;99.90;;;;;;5067540;28;20024;-67
2021/03/06 07:30:08;;;;;;;15.88;3.92;;;1.80;99.90;;;;;;5070784;28;20473;-69
2021/03/06 07:32:38;;;;;;;9.90;3.70;;;2.00;99.90;;;;;;5068479;28;20036;-67
2021/03/06 07:35:06;;;;;;;8.63;3.42;;;2.30;99.90;;;;;;5071209;28;20089;-68
2021/03/06 07:37:32;;;;;;;;;;;2.50;99.90;;;;;;5070980;28;20036;-70
2021/03/06 07:39:59;;;;;;;9.88;3.63;;;2.50;99.90;;;;;;5066222;28;19989;-69
2021/03/06 07:42:35;;;;;;;11.02;3.58;;;2.60;99.90;;;;;;5068329;28;20017;-69
2021/03/06 07:45:03;;;;;;;11.35;4.07;;;2.60;99.90;;;;;;5069910;28;20484;-68
2021/03/06 07:47:33;;;;;;;12.25;3.72;;;2.70;99.90;;;;;;5070887;28;20151;-68
2021/03/06 07:50:01;;;;;;;7.40;3.47;;;2.80;99.90;;;;;;5068824;28;20020;-68
2021/03/06 07:52:30;;;;;;;14.88;3.08;;;2.90;99.90;;;;;;5071614;28;20024;-68
2021/03/06 07:54:56;;;;;;;7.95;3.22;;;3.00;99.90;;;;;;5071386;28;20166;-68
2021/03/06 07:57:22;;;;;;;13.63;2.88;;;3.10;99.90;;;;;;5067872;28;20397;-68
2021/03/06 07:59:51;;;;;;;16.00;3.60;;;3.20;99.90;;;;;;5071966;28;20036;-68
2021/03/06 08:02:39;;;;;;;11.65;4.38;;;3.40;99.90;;;;;;5070320;28;20079;-68
2021/03/06 08:05:44;;;;;;;11.73;3.35;;;3.50;99.90;;;;;;5065931;28;20035;-68
2021/03/06 08:08:09;;;;;;;7.57;3.15;;;3.70;99.90;;;;;;5068745;28;20153;-68
2021/03/06 08:11:03;;;;;;;9.38;3.45;;;3.90;99.90;;;;;;5064772;28;20032;-68
2021/03/06 08:13:36;;;;;;;19.65;5.28;;;3.90;99.90;;;;;;5071394;28;20062;-69
2021/03/06 08:16:23;;;;;;;12.05;3.75;;;3.90;99.90;;;;;;5071982;28;20091;-68
2021/03/06 08:18:49;;;;;;;21.00;3.78;;;4.00;99.90;;;;;;5067901;28;20109;-68
2021/03/06 08:21:35;;;;;;;14.15;3.53;;;4.10;99.90;;;;;;5069795;28;20393;-68
2021/03/06 08:24:15;;;;;;;7.25;3.13;;;4.10;99.90;;;;;;5069204;28;20020;-69
2021/03/06 08:26:53;;;;;;;8.65;2.92;;;4.10;99.90;;;;;;5068964;28;20108;-68
2021/03/06 08:29:25;;;;;;;6.15;3.17;;;4.10;99.90;;;;;;5069575;28;20029;-68
2021/03/06 08:31:58;;;;;;;7.22;2.28;;;4.20;99.90;;;;;;5072689;28;20467;-68
2021/03/06 08:34:32;;;;;;;14.25;3.83;;;4.30;99.90;;;;;;5075340;28;20055;-68
2021/03/06 08:37:16;;;;;;;15.82;3.05;;;4.40;99.90;;;;;;5073772;28;20401;-67
2021/03/06 08:40:09;;;;;;;14.65;2.72;;;4.20;99.90;;;;;;5070944;28;20064;-68
2021/03/06 08:42:46;;;;;;;9.88;2.65;;;4.10;99.90;;;;;;5073961;28;20472;-68
2021/03/06 08:45:16;;;;;;;12.27;2.83;;;4.20;99.90;;;;;;5071590;28;21450;-68
2021/03/06 08:47:44;;;;;;;13.27;4.07;;;4.30;99.90;;;;;;5069879;28;20116;-68
2021/03/06 08:50:16;;;;;;;8.27;3.28;;;4.50;99.90;;;;;;5072349;28;20032;-69
2021/03/06 08:52:53;;;;;;;10.20;2.90;;;4.50;99.90;;;;;;5074595;28;20493;-68
2021/03/06 08:55:21;;;;;;;10.43;3.05;;;4.50;99.90;;;;;;5069207;28;20028;-69
2021/03/06 08:57:47;;;;;;;5.53;1.63;;;4.50;99.90;;;;;;5074965;28;20411;-69
2021/03/06 09:00:30;;;;;;;8.55;3.10;;;4.80;99.90;;;;;;5069849;28;20077;-67
2021/03/06 09:02:56;;;;;;;9.45;2.45;;;5.10;99.90;;;;;;5071246;28;20081;-67
2021/03/06 09:05:25;;;;;;;8.73;2.00;;;5.20;99.90;;;;;;5072195;28;20068;-68
2021/03/06 09:07:52;;;;;;;13.60;2.97;;;5.20;99.90;;;;;;5073101;28;20397;-68
2021/03/06 09:10:27;;;;;;;12.43;2.38;;;5.30;99.90;;;;;;5071885;28;20021;-67
2021/03/06 09:13:15;;;;;;;11.85;1.85;;;5.50;99.90;;;;;;5064731;28;20059;-68
2021/03/06 09:15:44;;;;;;;5.80;1.50;;;5.70;99.90;;;;;;5085533;28;20028;-68
2021/03/06 09:18:15;;;;;;;11.60;1.88;;;5.90;99.90;;;;;;5073300;28;20084;-69
2021/03/06 09:20:49;;;;;;;13.82;2.13;;;6.10;99.90;;;;;;5071259;28;20032;-69
2021/03/06 09:23:27;;;;;;;52.90;6.55;;;6.30;99.90;;;;;;5070719;28;20112;-68
2021/03/06 09:25:53;;;;;;;6.53;1.55;;;6.50;99.90;;;;;;5065093;28;20032;-68
2021/03/06 09:28:29;;;;;;;10.10;1.35;;;6.70;99.90;;;;;;5061353;28;20109;-68
2021/03/06 09:30:56;;;;;;;4.82;1.35;;;6.50;99.90;;;;;;5063733;28;20020;-69
2021/03/06 09:33:23;;;;;;;3.58;1.20;;;6.60;99.90;;;;;;5062224;28;20040;-69
2021/03/06 09:36:00;;;;;;;4.50;2.75;;;6.50;99.90;;;;;;5064479;28;20029;-68
2021/03/06 09:38:26;;;;;;;13.02;1.95;;;6.40;99.90;;;;;;5065148;28;20452;-68
2021/03/06 09:40:52;;;;;;;6.85;1.83;;;6.50;99.90;;;;;;5066290;28;20035;-68
2021/03/06 09:43:31;;;;;;;9.65;1.75;;;6.50;99.90;;;;;;5068153;28;20059;-68
2021/03/06 09:45:58;;;;;;;1.73;1.23;;;6.60;99.90;;;;;;5072213;28;20028;-67
2021/03/06 09:48:25;;;;;;;6.50;1.38;;;6.70;99.90;;;;;;5074532;28;20028;-69
2021/03/06 09:50:55;;;;;;;4.63;1.40;;;6.60;99.90;;;;;;5068484;28;20438;-68
2021/03/06 09:53:23;;;;;;;4.00;1.35;;;6.40;99.90;;;;;;5073565;28;20178;-67
2021/03/06 09:56:22;;;;;;;3.28;1.20;;;6.30;99.90;;;;;;5071656;28;20492;-68
2021/03/06 09:59:01;;;;;;;10.90;1.40;;;6.20;99.90;;;;;;5028782;28;20067;-68
2021/03/06 10:01:27;;;;;;;2.78;1.63;;;6.20;99.90;;;;;;5074175;28;20029;-67
2021/03/06 10:03:54;;;;;;;8.43;1.25;;;6.10;99.90;;;;;;5073323;28;20024;-69
2021/03/06 10:06:25;;;;;;;4.30;0.73;;;6.30;99.90;;;;;;5070787;28;20028;-68
2021/03/06 10:08:57;;;;;;;1.23;0.45;;;6.30;99.90;;;;;;5074268;28;20127;-69
2021/03/06 10:11:29;;;;;;;1.98;0.65;;;6.50;99.90;;;;;;5072926;28;20041;-68
2021/03/06 10:13:55;;;;;;;0.50;0.40;;;6.70;99.90;;;;;;5073585;28;20481;-68
2021/03/06 10:16:21;;;;;;;0.40;0.40;;;6.90;99.90;;;;;;5072285;28;20089;-68
2021/03/06 10:18:47;;;;;;;3.88;0.90;;;7.00;99.90;;;;;;5073059;28;20113;-68
2021/03/06 10:21:23;;;;;;;3.30;0.45;;;7.20;99.90;;;;;;5073923;28;20021;-68
2021/03/06 10:23:50;;;;;;;2.20;0.47;;;7.30;99.90;;;;;;5073919;28;20099;-68
2021/03/06 10:26:22;;;;;;;2.72;0.80;;;7.40;99.90;;;;;;5070047;28;20354;-67
2021/03/06 10:28:51;;;;;;;3.13;0.40;;;7.40;99.90;;;;;;5070699;28;20021;-67
2021/03/06 10:31:31;;;;;;;1.92;0.60;;;7.50;99.90;;;;;;5071848;28;20425;-69
2021/03/06 10:33:58;;;;;;;2.42;0.52;;;7.50;99.00;;;;;;5071978;28;20036;-70
2021/03/06 10:36:27;;;;;;;12.40;1.90;;;7.70;99.30;;;;;;5074446;28;20446;-69
2021/03/06 10:39:18;;;;;;;2.28;0.30;;;7.70;99.90;;;;;;5070675;28;20836;-69
2021/03/06 10:41:44;;;;;;;1.55;0.28;;;7.90;99.20;;;;;;5074072;28;20028;-68
2021/03/06 10:44:10;;;;;;;1.73;0.60;;;7.90;97.90;;;;;;5071904;28;20016;-68
2021/03/06 10:46:36;;;;;;;2.78;0.30;;;7.80;97.00;;;;;;5073103;28;20108;-68
2021/03/06 10:49:08;;;;;;;0.20;0.20;;;7.80;96.90;;;;;;5073520;28;20043;-67
2021/03/06 10:51:43;;;;;;;5.55;0.50;;;7.80;96.50;;;;;;5069606;28;20048;-68
2021/03/06 10:54:09;;;;;;;0.30;0.20;;;7.70;97.30;;;;;;5071379;28;20107;-68
2021/03/06 10:57:04;;;;;;;0.47;0.35;;;7.80;97.70;;;;;;5070714;28;20033;-68
2021/03/06 10:59:34;;;;;;;1.98;0.38;;;7.70;97.70;;;;;;5072792;28;20032;-68
2021/03/06 11:01:59;;;;;;;2.67;0.45;;;7.70;97.10;;;;;;5071200;28;20489;-67
2021/03/06 11:04:33;;;;;;;0.98;0.35;;;7.80;96.80;;;;;;5071120;28;20028;-69
2021/03/06 11:07:07;;;;;;;2.05;0.55;;;8.20;96.70;;;;;;5070735;28;20039;-68
2021/03/06 11:09:36;;;;;;;2.92;0.82;;;8.50;95.40;;;;;;5071607;28;20162;-68
2021/03/06 11:12:19;;;;;;;0.63;0.40;;;8.60;95.60;;;;;;5073545;28;20048;-67
2021/03/06 11:14:45;;;;;;;3.88;0.60;;;8.80;95.80;;;;;;5072692;28;20024;-67
2021/03/06 11:17:15;;;;;;;2.30;0.50;;;9.00;95.60;;;;;;5073479;28;20039;-68
2021/03/06 11:19:42;;;;;;;3.05;0.43;;;9.20;95.80;;;;;;5072217;28;20056;-68
2021/03/06 11:22:12;;;;;;;1.88;0.50;;;9.20;94.70;;;;;;5071737;28;20124;-68
2021/03/06 11:24:38;;;;;;;6.18;1.20;;;9.00;93.70;;;;;;5067405;28;20471;-68
2021/03/06 11:27:04;;;;;;;3.92;0.40;;;8.80;95.40;;;;;;5062913;28;20148;-69
2021/03/06 11:29:29;;;;;;;2.65;0.32;;;8.90;94.50;;;;;;5062728;28;20040;-69
2021/03/06 11:31:55;;;;;;;0.75;0.60;;;8.80;94.20;;;;;;5062812;28;20029;-69
2021/03/06 11:34:22;;;;;;;4.15;0.40;;;8.60;93.80;;;;;;5063238;28;20427;-68
2021/03/06 11:36:48;;;;;;;3.40;0.50;;;8.60;93.40;;;;;;5061484;28;20047;-68
2021/03/06 11:39:14;;;;;;;1.25;0.47;;;8.60;94.00;;;;;;5070014;28;20028;-67
2021/03/06 11:41:40;;;;;;;3.28;0.80;;;8.40;93.90;;;;;;5069978;28;20400;-69
2021/03/06 11:44:07;;;;;;;1.65;0.65;;;8.50;93.80;;;;;;5070938;28;20445;-67
2021/03/06 11:46:33;;;;;;;0.50;0.43;;;8.60;94.40;;;;;;5073368;28;20090;-68
2021/03/06 11:48:59;;;;;;;1.05;0.50;;;8.70;93.80;;;;;;5072146;28;20025;-68
2021/03/06 11:51:24;;;;;;;1.98;0.50;;;8.60;93.90;;;;;;5071752;28;20025;-68
2021/03/06 11:53:50;;;;;;;5.03;0.95;;;8.70;93.90;;;;;;5072264;28;20019;-68
2021/03/06 11:56:16;;;;;;;2.65;0.57;;;8.60;94.00;;;;;;5071913;28;20025;-67
2021/03/06 11:58:44;;;;;;;2.30;0.47;;;8.30;94.60;;;;;;5068257;28;20400;-67
2021/03/06 12:01:10;;;;;;;1.38;0.43;;;8.30;94.70;;;;;;5072046;28;20040;-68
2021/03/06 12:03:36;;;;;;;1.20;0.82;;;8.30;94.70;;;;;;5071100;28;20429;-68
2021/03/06 12:06:01;;;;;;;3.15;0.70;;;8.30;94.90;;;;;;5070481;28;20037;-68
2021/03/06 12:08:27;;;;;;;3.33;0.50;;;8.60;94.40;;;;;;5071193;28;20127;-69
2021/03/06 12:10:53;;;;;;;4.53;0.75;;;9.10;94.30;;;;;;5073349;28;20476;-68
2021/03/06 12:13:18;;;;;;;1.67;0.50;;;9.50;93.50;;;;;;5076721;28;20017;-68
2021/03/06 12:15:44;;;;;;;2.78;0.85;;;9.90;93.40;;;;;;5071048;28;20032;-68
2021/03/06 12:18:09;;;;;;;2.22;0.60;;;10.10;92.10;;;;;;5069716;28;20029;-68
2021/03/06 12:20:35;;;;;;;2.05;0.80;;;10.00;91.60;;;;;;5071682;28;20385;-69
2021/03/06 12:23:01;;;;;;;1.55;1.00;;;9.80;91.70;;;;;;5072541;28;20079;-67
2021/03/06 12:25:26;;;;;;;5.72;0.95;;;9.70;92.70;;;;;;5070921;28;20020;-67
2021/03/06 12:27:52;;;;;;;2.95;0.93;;;10.00;93.20;;;;;;5071781;28;20100;-68
2021/03/06 12:30:18;;;;;;;4.35;0.90;;;10.20;91.90;;;;;;5070840;28;20033;-68
2021/03/06 12:32:46;;;;;;;2.78;0.93;;;10.30;91.50;;;;;;5058408;28;20033;-68
2021/03/06 12:35:13;;;;;;;4.38;1.23;;;10.10;92.40;;;;;;5069610;28;20024;-68
2021/03/06 12:37:39;;;;;;;5.00;1.08;;;10.00;92.30;;;;;;5071277;28;20054;-69
2021/03/06 12:40:06;;;;;;;9.85;1.52;;;9.90;91.60;;;;;;5072222;28;20378;-68
2021/03/06 12:42:33;;;;;;;9.05;0.75;;;9.60;92.00;;;;;;5070253;28;21569;-68
2021/03/06 12:44:59;;;;;;;2.17;0.70;;;9.60;92.00;;;;;;5069645;28;20029;-69
2021/03/06 12:47:25;;;;;;;2.40;1.00;;;9.50;91.90;;;;;;5069281;28;20350;-69
2021/03/06 12:49:50;;;;;;;2.92;1.00;;;9.40;92.00;;;;;;5068150;28;20063;-69
2021/03/06 12:52:16;;;;;;;1.70;0.90;;;9.30;91.80;;;;;;5067302;28;20477;-68
2021/03/06 12:54:42;;;;;;;5.18;1.02;;;9.40;92.20;;;;;;5067819;28;20040;-69
2021/03/06 12:57:07;;;;;;;5.07;1.52;;;9.40;92.20;;;;;;5071745;28;20442;-68
2021/03/06 12:59:33;;;;;;;0.77;0.68;;;9.80;92.30;;;;;;5072462;28;20127;-68
2021/03/06 13:01:58;;;;;;;9.52;7.75;;;10.20;91.50;;;;;;5067995;28;20095;-69
2021/03/06 13:04:24;;;;;;;3.13;0.77;;;10.50;90.60;;;;;;5082607;28;20072;-69
2021/03/06 13:06:53;;;;;;;3.10;0.90;;;10.40;90.30;;;;;;5072285;28;20135;-69